PWSweather.com
Personal Weather Stations
Station Observations

OlomoucCZ

Lat: 49.5936202181, Lon: 17.2276005149

Elevation: 752

Station Type: Davis Vantage Pro 2 Activ

http://infopocasi-olomouc.cz

High Low Average
Temperature 36.9°F2.7°C 32.8°F0.4°C 35.1°F1.7°C
Dew Point 35.4°F1.9°C 31.9°F-0.1°C 33.3°F0.7°C
Winds 5.8 mph 9.3 kmh Calm Calm 2.0 mph W3.2 kmh W
Wind Gusts 9.2 mph14.8 kmh -- 4.0 mph6.4 kmh
Humidity 97% 89% 93%
Pressure 29.74 in1007.1 mb 29.50 in999.0 mb -
Precipitation 0.01 in0.3 mm - -
Hour Temp Dew Point Humidity Winds Wind Gusts Pressure Precip Precip Rate Daily Precip Total
12:00 AM 36.6°F2.6°C 35.3°F1.8°C 95% 2.3 mph SSE3.7 kmh SSE 4.6 mph7.4 kmh 29.50 in999.0 mb - 0.00 in0.0 mm 0.00 in0.0 mm
12:30 AM 36.5°F2.5°C 35.2°F1.8°C 95% 2.3 mph SSE3.7 kmh SSE 3.5 mph5.6 kmh 29.50 in999.0 mb - 0.00 in0.0 mm 0.00 in0.0 mm
01:00 AM 36.9°F2.7°C 35.4°F1.9°C 94% 4.6 mph SW7.4 kmh SW 5.8 mph9.3 kmh 29.50 in999.0 mb - 0.00 in0.0 mm 0.00 in0.0 mm
01:30 AM 36.8°F2.7°C 35.2°F1.8°C 94% 1.2 mph SW1.9 kmh SW 2.3 mph3.7 kmh 29.50 in999.0 mb - 0.00 in0.0 mm 0.00 in0.0 mm
02:00 AM 36.6°F2.6°C 35.0°F1.7°C 94% Calm Calm 2.3 mph3.7 kmh 29.50 in999.0 mb - 0.00 in0.0 mm 0.00 in0.0 mm
02:30 AM 36.6°F2.6°C 35.3°F1.8°C 95% 3.5 mph WSW5.6 kmh WSW 4.6 mph7.4 kmh 29.51 in999.3 mb - 0.00 in0.0 mm 0.00 in0.0 mm
03:00 AM 36.9°F2.7°C 35.3°F1.8°C 94% 3.5 mph W5.6 kmh W 6.9 mph11.1 kmh 29.52 in999.7 mb - 0.00 in0.0 mm 0.00 in0.0 mm
03:30 AM 36.3°F2.4°C 33.9°F1.1°C 91% 2.3 mph NW3.7 kmh NW 3.5 mph5.6 kmh 29.51 in999.3 mb - 0.00 in0.0 mm 0.00 in0.0 mm
04:00 AM 35.6°F2.0°C 33.5°F0.8°C 92% 2.3 mph NW3.7 kmh NW 3.5 mph5.6 kmh 29.50 in999.0 mb - 0.00 in0.0 mm 0.00 in0.0 mm
04:30 AM 35.7°F2.1°C 33.3°F0.7°C 91% 4.6 mph WNW7.4 kmh WNW 8.1 mph13.0 kmh 29.50 in999.0 mb - 0.00 in0.0 mm 0.00 in0.0 mm
05:00 AM 35.5°F1.9°C 33.1°F0.6°C 91% 3.5 mph W5.6 kmh W 3.5 mph5.6 kmh 29.50 in999.0 mb - 0.00 in0.0 mm 0.00 in0.0 mm
05:30 AM 35.4°F1.9°C 33.0°F0.6°C 91% 4.6 mph W7.4 kmh W 9.2 mph14.8 kmh 29.50 in999.0 mb - 0.00 in0.0 mm 0.00 in0.0 mm
06:00 AM 35.3°F1.8°C 32.7°F0.4°C 90% 4.6 mph WSW7.4 kmh WSW 6.9 mph11.1 kmh 29.50 in999.0 mb - 0.00 in0.0 mm 0.00 in0.0 mm
06:30 AM 35.0°F1.7°C 32.6°F0.3°C 91% 3.5 mph SW5.6 kmh SW 5.8 mph9.3 kmh 29.51 in999.3 mb - 0.00 in0.0 mm 0.00 in0.0 mm
07:00 AM 35.3°F1.8°C 32.7°F0.4°C 90% 5.8 mph WSW9.3 kmh WSW 8.1 mph13.0 kmh 29.51 in999.3 mb - 0.00 in0.0 mm 0.00 in0.0 mm
07:30 AM 35.1°F1.7°C 32.5°F0.3°C 90% 2.3 mph SW3.7 kmh SW 3.5 mph5.6 kmh 29.52 in999.7 mb - 0.00 in0.0 mm 0.00 in0.0 mm
08:00 AM 34.7°F1.5°C 32.3°F0.2°C 91% 4.6 mph WSW7.4 kmh WSW 5.8 mph9.3 kmh 29.52 in999.7 mb - 0.00 in0.0 mm 0.00 in0.0 mm
08:30 AM 34.8°F1.6°C 32.7°F0.4°C 92% Calm Calm 2.3 mph3.7 kmh 29.53 in1000.0 mb - 0.00 in0.0 mm 0.00 in0.0 mm
09:00 AM 35.3°F1.8°C 32.9°F0.5°C 91% Calm Calm 1.2 mph1.9 kmh 29.53 in1000.0 mb - 0.00 in0.0 mm 0.00 in0.0 mm
09:30 AM 35.9°F2.2°C 33.3°F0.7°C 90% 3.5 mph SW5.6 kmh SW 3.5 mph5.6 kmh 29.53 in1000.0 mb - 0.00 in0.0 mm 0.00 in0.0 mm
10:00 AM 36.3°F2.4°C 33.4°F0.8°C 89% 3.5 mph WSW5.6 kmh WSW 4.6 mph7.4 kmh 29.54 in1000.3 mb - 0.00 in0.0 mm 0.00 in0.0 mm
10:30 AM 35.7°F2.1°C 33.6°F0.9°C 92% 2.3 mph WSW3.7 kmh WSW 3.5 mph5.6 kmh 29.55 in1000.7 mb - 0.00 in0.0 mm 0.00 in0.0 mm
11:00 AM 35.4°F1.9°C 33.9°F1.1°C 94% Calm Calm -- 29.55 in1000.7 mb - 0.00 in0.0 mm 0.00 in0.0 mm
11:30 AM 35.7°F2.1°C 34.2°F1.2°C 94% 2.3 mph SW3.7 kmh SW 3.5 mph5.6 kmh 29.55 in1000.7 mb - 0.00 in0.0 mm 0.00 in0.0 mm
12:00 PM 36.4°F2.4°C 34.8°F1.6°C 94% 2.3 mph WSW3.7 kmh WSW 3.5 mph5.6 kmh 29.55 in1000.7 mb - 0.00 in0.0 mm 0.00 in0.0 mm
12:30 PM 36.4°F2.4°C 33.7°F0.9°C 90% 4.6 mph W7.4 kmh W 6.9 mph11.1 kmh 29.55 in1000.7 mb - 0.00 in0.0 mm 0.00 in0.0 mm
01:00 PM 36.2°F2.3°C 33.3°F0.7°C 89% 2.3 mph NNW3.7 kmh NNW 3.5 mph5.6 kmh 29.55 in1000.7 mb - 0.00 in0.0 mm 0.00 in0.0 mm
01:30 PM 36.5°F2.5°C 33.8°F1.0°C 90% 3.5 mph NNW5.6 kmh NNW 3.5 mph5.6 kmh 29.55 in1000.7 mb - 0.00 in0.0 mm 0.00 in0.0 mm
02:00 PM 35.8°F2.1°C 33.7°F0.9°C 92% 3.5 mph W5.6 kmh W 5.8 mph9.3 kmh 29.56 in1001.0 mb - 0.00 in0.0 mm 0.00 in0.0 mm
02:30 PM 35.0°F1.7°C 33.2°F0.7°C 93% 1.2 mph WNW1.9 kmh WNW 2.3 mph3.7 kmh 29.57 in1001.4 mb - 0.00 in0.0 mm 0.00 in0.0 mm
03:00 PM 35.3°F1.8°C 33.5°F0.8°C 93% 1.2 mph W1.9 kmh W 3.5 mph5.6 kmh 29.57 in1001.4 mb - 0.00 in0.0 mm 0.00 in0.0 mm
03:30 PM 34.9°F1.6°C 33.3°F0.7°C 94% 1.2 mph W1.9 kmh W 1.2 mph1.9 kmh 29.58 in1001.7 mb - 0.00 in0.0 mm 0.00 in0.0 mm
04:00 PM 34.8°F1.6°C 33.3°F0.7°C 94% 3.5 mph W5.6 kmh W 3.5 mph5.6 kmh 29.59 in1002.0 mb - 0.00 in0.0 mm 0.00 in0.0 mm
04:30 PM 34.9°F1.6°C 32.8°F0.4°C 92% 2.3 mph W3.7 kmh W 5.8 mph9.3 kmh 29.60 in1002.4 mb - 0.00 in0.0 mm 0.00 in0.0 mm
05:00 PM 34.5°F1.4°C 32.4°F0.2°C 92% 1.2 mph WNW1.9 kmh WNW 3.5 mph5.6 kmh 29.61 in1002.7 mb - 0.00 in0.0 mm 0.00 in0.0 mm
05:30 PM 34.2°F1.2°C 32.4°F0.2°C 93% 2.3 mph WNW3.7 kmh WNW 3.5 mph5.6 kmh 29.62 in1003.0 mb - 0.00 in0.0 mm 0.00 in0.0 mm
06:00 PM 34.1°F1.2°C 32.6°F0.3°C 94% 1.2 mph WNW1.9 kmh WNW 2.3 mph3.7 kmh 29.63 in1003.4 mb - 0.00 in0.0 mm 0.00 in0.0 mm
06:30 PM 33.9°F1.1°C 32.4°F0.2°C 94% Calm Calm -- 29.63 in1003.4 mb - 0.00 in0.0 mm 0.00 in0.0 mm
07:00 PM 33.7°F0.9°C 32.2°F0.1°C 94% 1.2 mph WNW1.9 kmh WNW 2.3 mph3.7 kmh 29.64 in1003.7 mb - 0.00 in0.0 mm 0.00 in0.0 mm
07:30 PM 33.6°F0.9°C 32.1°F0.1°C 94% 2.3 mph WNW3.7 kmh WNW 3.5 mph5.6 kmh 29.65 in1004.1 mb - 0.00 in0.0 mm 0.00 in0.0 mm
08:00 PM 33.2°F0.7°C 31.9°F-0.1°C 95% Calm Calm -- 29.67 in1004.7 mb - 0.00 in0.0 mm 0.00 in0.0 mm
08:30 PM 33.6°F0.9°C 32.3°F0.2°C 95% 1.2 mph WNW1.9 kmh WNW 2.3 mph3.7 kmh 29.68 in1005.1 mb - 0.00 in0.0 mm 0.00 in0.0 mm
09:00 PM 33.7°F0.9°C 32.4°F0.2°C 95% 2.3 mph WNW3.7 kmh WNW 3.5 mph5.6 kmh 29.69 in1005.4 mb - 0.00 in0.0 mm 0.00 in0.0 mm
09:30 PM 33.7°F0.9°C 32.4°F0.2°C 95% 3.5 mph NW5.6 kmh NW 3.5 mph5.6 kmh 29.70 in1005.8 mb - 0.00 in0.0 mm 0.00 in0.0 mm
10:00 PM 33.0°F0.6°C 32.0°F0.0°C 96% 2.3 mph NW3.7 kmh NW 3.5 mph5.6 kmh 29.71 in1006.1 mb - 0.00 in0.0 mm 0.00 in0.0 mm
10:30 PM 32.8°F0.4°C 32.0°F0.0°C 97% 3.5 mph NW5.6 kmh NW 3.5 mph5.6 kmh 29.73 in1006.8 mb - 0.00 in0.0 mm 0.00 in0.0 mm
11:00 PM 32.8°F0.4°C 32.0°F0.0°C 97% 2.3 mph NW3.7 kmh NW 3.5 mph5.6 kmh 29.74 in1007.1 mb - 0.00 in0.0 mm 0.00 in0.0 mm
11:30 PM 32.9°F0.5°C 32.1°F0.1°C 97% 3.5 mph NW5.6 kmh NW 4.6 mph7.4 kmh 29.74 in1007.1 mb - 0.01 in0.3 mm 0.01 in0.3 mm